Terminal Aerodrome Forecast
Issued by NWS Jackson, MS

Current Version | Previous Version | Text Only | Print | Product List | Glossary On
Versions: 1 2 3 4 5 6 7 8 9 10 11 12 13 14 15 16 17 18 19 20 21
000
FTUS44 KJAN 271120
TAFMEI
TAF
KMEI 271120Z 2712/2812 33007KT P6SM OVC015
     FM271500 34009KT P6SM SCT020
     FM271900 32010G15KT P6SM SCT100
     FM272000 32011G18KT P6SM OVC050
     FM280200 34008KT P6SM BKN250=

USA.gov is the U.S. government's official web portal to all federal, state and local government web resources and services.